createdAt,value
2022-10-10T00:03:26.248Z,100.00
2022-10-10T00:08:33.685Z,100.00
2022-10-10T00:13:40.029Z,100.00
2022-10-10T00:18:45.992Z,100.00
2022-10-10T00:23:53.618Z,100.00
2022-10-10T00:28:58.721Z,100.00
2022-10-10T00:34:03.584Z,100.00
2022-10-10T00:39:10.968Z,100.00
2022-10-10T00:44:18.075Z,100.00
2022-10-10T00:49:28.263Z,100.00
2022-10-10T00:54:37.011Z,100.00
2022-10-10T00:59:46.219Z,100.00
2022-10-10T01:04:50.961Z,100.00
2022-10-10T01:10:03.137Z,100.00
2022-10-10T01:15:15.298Z,100.00
2022-10-10T01:20:51.836Z,100.00
2022-10-10T01:26:12.455Z,100.00
2022-10-10T01:31:22.817Z,100.00
2022-10-10T01:36:35.770Z,100.00
2022-10-10T01:41:48.431Z,100.00
2022-10-10T01:46:55.924Z,100.00
2022-10-10T01:52:14.382Z,100.00
2022-10-10T01:57:25.744Z,100.00
2022-10-10T02:02:45.067Z,100.00
2022-10-10T02:07:56.565Z,100.00
2022-10-10T02:13:05.543Z,100.00
2022-10-10T02:18:15.023Z,100.00
2022-10-10T02:23:22.853Z,100.00
2022-10-10T02:28:32.699Z,100.00
2022-10-10T02:33:47.431Z,100.00
2022-10-10T02:38:53.998Z,100.00
2022-10-10T02:43:59.579Z,100.00
2022-10-10T02:49:10.959Z,100.00
2022-10-10T02:54:15.665Z,100.00
2022-10-10T02:59:20.777Z,100.00
2022-10-10T03:04:29.140Z,100.00
2022-10-10T03:09:34.167Z,100.00
2022-10-10T03:14:39.395Z,100.00
2022-10-10T03:19:46.847Z,100.00
2022-10-10T03:24:51.812Z,100.00
2022-10-10T03:29:56.631Z,100.00
2022-10-10T03:35:03.952Z,100.00
2022-10-10T03:40:09.730Z,100.00
2022-10-10T03:45:14.620Z,100.00
2022-10-10T03:50:22.287Z,100.00
2022-10-10T03:55:27.737Z,100.00
2022-10-10T04:00:32.446Z,100.00
2022-10-10T04:05:44.363Z,100.00
2022-10-10T04:10:53.513Z,100.00
2022-10-10T04:15:59.820Z,100.00
2022-10-10T04:21:09.753Z,100.00
2022-10-10T04:26:14.641Z,100.00
2022-10-10T04:31:20.264Z,100.00
2022-10-10T04:36:27.921Z,100.00
2022-10-10T04:41:33.005Z,100.00
2022-10-10T04:46:38.066Z,100.00
2022-10-10T04:51:45.563Z,100.00
2022-10-10T04:56:51.098Z,100.00
2022-10-10T05:02:00.664Z,100.00
2022-10-10T05:07:12.065Z,99.91
2022-10-10T05:12:16.883Z,100.00
2022-10-10T05:17:22.428Z,100.00
2022-10-10T05:22:30.159Z,100.00
2022-10-10T05:27:35.463Z,98.00
2022-10-10T05:32:40.908Z,98.25
2022-10-10T05:37:51.023Z,98.04
2022-10-10T05:42:58.479Z,97.55
2022-10-10T05:48:04.685Z,97.37
2022-10-10T05:53:12.403Z,97.98
2022-10-10T05:58:17.409Z,97.66
2022-10-10T06:03:30.090Z,97.79
2022-10-10T06:08:37.727Z,96.55
2022-10-10T06:13:42.534Z,96.42
2022-10-10T06:18:47.511Z,96.24
2022-10-10T06:23:55.287Z,95.26
2022-10-10T06:29:00.133Z,94.50
2022-10-10T06:34:07.944Z,93.83
2022-10-10T06:39:17.095Z,92.97
2022-10-10T06:44:22.112Z,91.99
2022-10-10T06:49:28.636Z,88.82
2022-10-10T06:54:36.474Z,86.00
2022-10-10T06:59:41.314Z,87.55
2022-10-10T07:04:46.438Z,88.99
2022-10-10T07:09:55.212Z,86.38
2022-10-10T07:15:00.600Z,87.65
2022-10-10T07:20:05.901Z,88.53
2022-10-10T07:25:14.779Z,88.93
2022-10-10T07:30:20.054Z,89.67
2022-10-10T07:35:26.062Z,89.93
2022-10-10T07:40:34.013Z,90.15
2022-10-10T07:45:38.863Z,89.60
2022-10-10T07:50:44.536Z,90.12
2022-10-10T07:55:52.105Z,89.70
2022-10-10T08:01:05.041Z,89.51
2022-10-10T08:06:12.004Z,89.18
2022-10-10T08:11:22.253Z,88.99
2022-10-10T08:16:27.424Z,89.22
2022-10-10T08:21:32.760Z,89.06
2022-10-10T08:26:40.304Z,89.05
2022-10-10T08:31:45.237Z,89.03
2022-10-10T08:36:50.116Z,87.49
2022-10-10T08:42:00.622Z,87.65
2022-10-10T08:47:08.944Z,87.13
2022-10-10T08:52:22.773Z,87.58
2022-10-10T08:57:34.997Z,86.67
2022-10-10T09:02:53.785Z,85.58
2022-10-10T09:08:26.613Z,82.20
2022-10-10T09:13:39.814Z,81.38
2022-10-10T09:18:59.675Z,82.28
2022-10-10T09:24:09.045Z,82.00
2022-10-10T09:29:30.541Z,81.02
2022-10-10T09:34:42.094Z,80.29
2022-10-10T09:39:51.096Z,80.79
2022-10-10T09:44:59.740Z,80.77
2022-10-10T09:50:05.010Z,79.00
2022-10-10T09:55:24.737Z,79.23
2022-10-10T10:00:42.007Z,77.63
2022-10-10T10:05:49.517Z,74.96
2022-10-10T10:11:15.008Z,72.83
2022-10-10T10:16:48.119Z,74.21
2022-10-10T10:21:57.094Z,74.49
2022-10-10T10:27:12.671Z,75.78
2022-10-10T10:32:32.212Z,75.70
2022-10-10T10:37:46.443Z,78.54
2022-10-10T10:43:26.355Z,79.33
2022-10-10T10:48:42.380Z,77.60
2022-10-10T10:53:55.871Z,78.29
2022-10-10T10:59:38.589Z,77.78
2022-10-10T11:05:22.282Z,79.08
2022-10-10T11:10:38.114Z,77.27
2022-10-10T11:16:05.351Z,77.35
2022-10-10T11:21:21.619Z,77.51
2022-10-10T11:26:29.913Z,76.99
2022-10-10T11:31:43.012Z,75.45
2022-10-10T11:36:51.743Z,75.31
2022-10-10T11:42:00.801Z,75.82
2022-10-10T11:47:13.338Z,74.87
2022-10-10T11:52:34.182Z,74.74
2022-10-10T11:57:44.321Z,74.94
2022-10-10T12:02:50.652Z,76.56
2022-10-10T12:08:18.168Z,76.47
2022-10-10T12:13:34.287Z,74.59
2022-10-10T12:18:46.435Z,74.18
2022-10-10T12:24:04.573Z,75.72
2022-10-10T12:29:13.621Z,76.52
2022-10-10T12:34:46.778Z,77.28
2022-10-10T12:40:25.799Z,78.74
2022-10-10T12:45:59.374Z,77.82
2022-10-10T12:51:05.539Z,77.81
2022-10-10T12:56:16.950Z,77.41
2022-10-10T13:01:28.890Z,77.70
2022-10-10T13:06:39.625Z,79.30
2022-10-10T13:11:59.285Z,78.65
2022-10-10T13:17:04.695Z,81.26
2022-10-10T13:22:11.842Z,81.81
2022-10-10T13:27:24.367Z,81.37
2022-10-10T13:32:32.661Z,81.04
2022-10-10T13:37:38.393Z,80.92
2022-10-10T13:42:49.968Z,81.30
2022-10-10T13:47:56.576Z,81.96
2022-10-10T13:53:27.091Z,83.26
2022-10-10T13:58:40.570Z,82.75
2022-10-10T14:03:49.741Z,83.59
2022-10-10T14:08:59.284Z,82.15
2022-10-10T14:14:11.105Z,82.46
2022-10-10T14:19:21.181Z,83.85
2022-10-10T14:24:26.553Z,84.13
2022-10-10T14:29:34.259Z,84.15
2022-10-10T14:34:39.416Z,84.57
2022-10-10T14:39:44.315Z,85.24
2022-10-10T14:44:52.021Z,86.36
2022-10-10T14:49:58.104Z,86.67
2022-10-10T14:55:03.222Z,86.66
2022-10-10T15:00:16.505Z,86.40
2022-10-10T15:05:21.487Z,87.15
2022-10-10T15:10:34.621Z,87.83
2022-10-10T15:15:42.912Z,87.86
2022-10-10T15:20:47.726Z,88.49
2022-10-10T15:25:52.655Z,88.84
2022-10-10T15:31:00.456Z,89.42
2022-10-10T15:36:10.067Z,89.75
2022-10-10T15:41:17.190Z,89.70
2022-10-10T15:46:26.608Z,89.71
2022-10-10T15:51:32.002Z,90.88
2022-10-10T15:56:37.543Z,92.08
2022-10-10T16:01:45.255Z,91.81
2022-10-10T16:06:54.616Z,92.67
2022-10-10T16:12:11.580Z,93.16
2022-10-10T16:17:23.098Z,93.87
2022-10-10T16:22:28.413Z,94.41
2022-10-10T16:27:33.649Z,95.11
2022-10-10T16:32:42.799Z,95.51
2022-10-10T16:37:47.913Z,97.42
2022-10-10T16:42:52.677Z,97.20
2022-10-10T16:48:00.420Z,96.86
2022-10-10T16:53:05.232Z,96.87
2022-10-10T16:58:10.403Z,96.63
2022-10-10T17:03:17.790Z,96.73
2022-10-10T17:08:22.616Z,96.55
2022-10-10T17:13:28.318Z,97.91
2022-10-10T17:18:36.349Z,97.96
2022-10-10T17:23:41.248Z,98.44
2022-10-10T17:28:47.056Z,98.63
2022-10-10T17:33:55.046Z,98.99
2022-10-10T17:39:00.455Z,99.12
2022-10-10T17:44:06.083Z,99.86
2022-10-10T17:49:15.005Z,100.00
2022-10-10T17:54:19.999Z,100.00
2022-10-10T17:59:25.080Z,100.00
2022-10-10T18:04:32.788Z,100.00
2022-10-10T18:09:37.696Z,100.00
2022-10-10T18:14:42.414Z,100.00
2022-10-10T18:19:49.870Z,100.00
2022-10-10T18:24:54.768Z,100.00
2022-10-10T18:30:01.994Z,100.00
2022-10-10T18:35:10.630Z,100.00
2022-10-10T18:40:20.035Z,100.00
2022-10-10T18:45:25.030Z,100.00
2022-10-10T18:50:32.650Z,100.00
2022-10-10T18:55:38.047Z,100.00
2022-10-10T19:00:43.196Z,100.00
2022-10-10T19:05:50.908Z,100.00
2022-10-10T19:10:55.778Z,100.00
2022-10-10T19:16:06.769Z,100.00
2022-10-10T19:21:15.356Z,100.00
2022-10-10T19:26:21.371Z,100.00
2022-10-10T19:31:27.038Z,100.00
2022-10-10T19:36:37.190Z,100.00
2022-10-10T19:41:44.900Z,100.00
2022-10-10T19:46:50.239Z,100.00
2022-10-10T19:51:58.334Z,100.00
2022-10-10T19:57:04.443Z,100.00
2022-10-10T20:02:10.184Z,100.00
2022-10-10T20:07:17.659Z,100.00
2022-10-10T20:12:22.783Z,100.00
2022-10-10T20:17:27.782Z,100.00
2022-10-10T20:22:35.865Z,100.00
2022-10-10T20:27:40.616Z,100.00
2022-10-10T20:32:46.352Z,100.00
2022-10-10T20:37:54.207Z,100.00
2022-10-10T20:42:59.093Z,100.00
2022-10-10T20:48:04.206Z,100.00
2022-10-10T20:53:11.621Z,100.00
2022-10-10T20:58:16.391Z,100.00
2022-10-10T21:03:21.264Z,100.00
2022-10-10T21:08:28.737Z,100.00
2022-10-10T21:13:34.463Z,100.00
2022-10-10T21:18:39.824Z,100.00
2022-10-10T21:23:51.699Z,100.00
2022-10-10T21:29:00.969Z,100.00
2022-10-10T21:34:07.615Z,100.00
2022-10-10T21:39:15.945Z,100.00
2022-10-10T21:44:20.862Z,100.00
2022-10-10T21:49:25.792Z,100.00
2022-10-10T21:54:36.625Z,100.00
2022-10-10T21:59:41.531Z,100.00
2022-10-10T22:04:46.644Z,100.00
2022-10-10T22:09:54.030Z,100.00
2022-10-10T22:14:59.088Z,100.00
2022-10-10T22:20:04.518Z,100.00
2022-10-10T22:25:14.823Z,100.00
2022-10-10T22:30:19.802Z,100.00
2022-10-10T22:35:25.476Z,100.00
2022-10-10T22:40:34.307Z,100.00
2022-10-10T22:45:39.163Z,100.00
2022-10-10T22:50:43.898Z,100.00
2022-10-10T22:55:51.576Z,100.00
2022-10-10T23:00:57.511Z,100.00
2022-10-10T23:06:02.780Z,100.00
2022-10-10T23:11:10.769Z,100.00
2022-10-10T23:16:16.185Z,100.00
2022-10-10T23:21:21.532Z,100.00
2022-10-10T23:26:29.282Z,100.00
2022-10-10T23:31:34.493Z,100.00
2022-10-10T23:36:39.494Z,100.00
2022-10-10T23:41:46.905Z,100.00
2022-10-10T23:46:51.995Z,100.00
2022-10-10T23:51:56.746Z,100.00
2022-10-10T23:57:04.299Z,100.00
